sensor_id;sensor_type;location;lat;lon;timestamp;pressure;altitude;pressure_sealevel;temperature;humidity
50123;BME280;36021;48.670;6.184;2023-02-13T00:00:09;100845.13;;;7.71;100.00
50123;BME280;36021;48.670;6.184;2023-02-13T00:02:35;100847.63;;;7.73;100.00
50123;BME280;36021;48.670;6.184;2023-02-13T00:05:01;100841.78;;;7.69;100.00
50123;BME280;36021;48.670;6.184;2023-02-13T00:07:26;100838.06;;;7.64;100.00
50123;BME280;36021;48.670;6.184;2023-02-13T00:09:52;100835.94;;;7.48;100.00
50123;BME280;36021;48.670;6.184;2023-02-13T00:12:17;100836.31;;;7.51;100.00
50123;BME280;36021;48.670;6.184;2023-02-13T00:14:43;100838.22;;;7.51;100.00
50123;BME280;36021;48.670;6.184;2023-02-13T00:17:10;100836.53;;;7.50;100.00
50123;BME280;36021;48.670;6.184;2023-02-13T00:19:35;100834.41;;;7.52;100.00
50123;BME280;36021;48.670;6.184;2023-02-13T00:22:01;100837.09;;;7.40;100.00
50123;BME280;36021;48.670;6.184;2023-02-13T00:24:27;100839.75;;;7.47;100.00
50123;BME280;36021;48.670;6.184;2023-02-13T00:26:54;100835.09;;;7.47;100.00
50123;BME280;36021;48.670;6.184;2023-02-13T00:29:19;100842.34;;;7.42;100.00
50123;BME280;36021;48.670;6.184;2023-02-13T00:31:45;100842.94;;;7.44;100.00
50123;BME280;36021;48.670;6.184;2023-02-13T00:34:12;100846.78;;;7.43;100.00
50123;BME280;36021;48.670;6.184;2023-02-13T00:36:38;100846.31;;;7.46;100.00
50123;BME280;36021;48.670;6.184;2023-02-13T00:39:03;100840.84;;;7.46;100.00
50123;BME280;36021;48.670;6.184;2023-02-13T00:41:29;100836.56;;;7.31;100.00
50123;BME280;36021;48.670;6.184;2023-02-13T00:43:55;100837.69;;;7.24;100.00
50123;BME280;36021;48.670;6.184;2023-02-13T00:46:21;100837.78;;;7.17;100.00
50123;BME280;36021;48.670;6.184;2023-02-13T00:48:46;100838.53;;;7.24;100.00
50123;BME280;36021;48.670;6.184;2023-02-13T00:51:12;100829.34;;;7.19;100.00
50123;BME280;36021;48.670;6.184;2023-02-13T00:53:40;100840.75;;;7.16;100.00
50123;BME280;36021;48.670;6.184;2023-02-13T00:56:06;100839.75;;;7.10;100.00
50123;BME280;36021;48.670;6.184;2023-02-13T00:58:32;100840.00;;;7.09;100.00
50123;BME280;36021;48.670;6.184;2023-02-13T01:00:58;100834.72;;;7.07;100.00
50123;BME280;36021;48.670;6.184;2023-02-13T01:03:23;100839.16;;;7.08;100.00
50123;BME280;36021;48.670;6.184;2023-02-13T01:05:49;100838.38;;;7.01;100.00
50123;BME280;36021;48.670;6.184;2023-02-13T01:08:15;100839.34;;;7.07;100.00
50123;BME280;36021;48.670;6.184;2023-02-13T01:10:41;100837.00;;;7.10;100.00
50123;BME280;36021;48.670;6.184;2023-02-13T01:13:08;100845.84;;;7.12;100.00
50123;BME280;36021;48.670;6.184;2023-02-13T01:15:34;100839.06;;;7.15;100.00
50123;BME280;36021;48.670;6.184;2023-02-13T01:18:00;100841.59;;;7.16;100.00
50123;BME280;36021;48.670;6.184;2023-02-13T01:20:26;100842.88;;;7.14;100.00
50123;BME280;36021;48.670;6.184;2023-02-13T01:22:52;100842.03;;;7.13;100.00
50123;BME280;36021;48.670;6.184;2023-02-13T01:25:17;100843.25;;;7.17;100.00
50123;BME280;36021;48.670;6.184;2023-02-13T01:27:45;100846.63;;;7.19;100.00
50123;BME280;36021;48.670;6.184;2023-02-13T01:30:12;100840.81;;;7.09;100.00
50123;BME280;36021;48.670;6.184;2023-02-13T01:32:40;100839.59;;;7.05;100.00
50123;BME280;36021;48.670;6.184;2023-02-13T01:35:06;100839.59;;;7.05;100.00
50123;BME280;36021;48.670;6.184;2023-02-13T01:37:31;100849.25;;;7.08;100.00
50123;BME280;36021;48.670;6.184;2023-02-13T01:39:59;100845.69;;;7.07;100.00
50123;BME280;36021;48.670;6.184;2023-02-13T01:42:26;100839.59;;;7.05;100.00
50123;BME280;36021;48.670;6.184;2023-02-13T01:44:53;100838.38;;;7.01;100.00
50123;BME280;36021;48.670;6.184;2023-02-13T01:47:41;100841.75;;;7.03;100.00
50123;BME280;36021;48.670;6.184;2023-02-13T01:52:34;100842.56;;;7.04;100.00
50123;BME280;36021;48.670;6.184;2023-02-13T01:55:01;100840.06;;;7.02;100.00
50123;BME280;36021;48.670;6.184;2023-02-13T01:57:27;100845.28;;;7.04;100.00
50123;BME280;36021;48.670;6.184;2023-02-13T01:59:59;100850.56;;;7.05;100.00
50123;BME280;36021;48.670;6.184;2023-02-13T02:02:27;100848.03;;;7.04;100.00
50123;BME280;36021;48.670;6.184;2023-02-13T02:04:58;100840.28;;;7.01;100.00
50123;BME280;36021;48.670;6.184;2023-02-13T02:07:24;100836.94;;;6.99;100.00
50123;BME280;36021;48.670;6.184;2023-02-13T02:09:52;100838.81;;;6.98;100.00
50123;BME280;36021;48.670;6.184;2023-02-13T02:14:45;100835.50;;;6.96;100.00
50123;BME280;36021;48.670;6.184;2023-02-13T02:17:11;100835.50;;;6.96;100.00
50123;BME280;36021;48.670;6.184;2023-02-13T02:19:41;100839.75;;;6.92;100.00
50123;BME280;36021;48.670;6.184;2023-02-13T02:33:11;100838.38;;;6.83;100.00
50123;BME280;36021;48.670;6.184;2023-02-13T02:35:35;100839.81;;;6.86;100.00
50123;BME280;36021;48.670;6.184;2023-02-13T02:38:27;100833.94;;;6.82;100.00
50123;BME280;36021;48.670;6.184;2023-02-13T02:46:10;100822.78;;;6.59;100.00
50123;BME280;36021;48.670;6.184;2023-02-13T02:48:44;100822.78;;;6.59;100.00
50123;BME280;36021;48.670;6.184;2023-02-13T02:51:39;100822.78;;;6.59;100.00
50123;BME280;36021;48.670;6.184;2023-02-13T02:54:08;100824.91;;;6.57;100.00
50123;BME280;36021;48.670;6.184;2023-02-13T02:57:00;100822.94;;;6.64;100.00
50123;BME280;36021;48.670;6.184;2023-02-13T02:59:28;100825.69;;;6.64;100.00
50123;BME280;36021;48.670;6.184;2023-02-13T03:02:12;100823.63;;;6.59;100.00
50123;BME280;36021;48.670;6.184;2023-02-13T03:04:58;100827.84;;;6.55;100.00
50123;BME280;36021;48.670;6.184;2023-02-13T03:07:44;100833.72;;;6.59;100.00
50123;BME280;36021;48.670;6.184;2023-02-13T03:10:11;100833.72;;;6.59;100.00
50123;BME280;36021;48.670;6.184;2023-02-13T03:12:57;100830.38;;;6.57;100.00
50123;BME280;36021;48.670;6.184;2023-02-13T03:15:49;100832.88;;;6.58;100.00
50123;BME280;36021;48.670;6.184;2023-02-13T03:18:36;100838.59;;;6.57;100.00
50123;BME280;36021;48.670;6.184;2023-02-13T03:27:08;100830.66;;;6.49;100.00
50123;BME280;36021;48.670;6.184;2023-02-13T03:32:53;100833.41;;;6.49;100.00
50123;BME280;36021;48.670;6.184;2023-02-13T03:38:18;100830.66;;;6.49;100.00
50123;BME280;36021;48.670;6.184;2023-02-13T03:43:31;100827.06;;;6.48;100.00
50123;BME280;36021;48.670;6.184;2023-02-13T03:46:01;100834.47;;;6.48;100.00
50123;BME280;36021;48.670;6.184;2023-02-13T03:48:34;100836.75;;;6.51;100.00
50123;BME280;36021;48.670;6.184;2023-02-13T03:51:30;100846.25;;;6.48;100.00
50123;BME280;36021;48.670;6.184;2023-02-13T03:53:59;100839.72;;;6.49;100.00
50123;BME280;36021;48.670;6.184;2023-02-13T03:56:27;100838.88;;;6.49;100.00
50123;BME280;36021;48.670;6.184;2023-02-13T03:59:17;100843.34;;;6.43;100.00
50123;BME280;36021;48.670;6.184;2023-02-13T04:01:57;100845.78;;;6.26;100.00
50123;BME280;36021;48.670;6.184;2023-02-13T04:06:53;100847.28;;;6.22;100.00
50123;BME280;36021;48.670;6.184;2023-02-13T04:09:21;100851.72;;;6.23;100.00
50123;BME280;36021;48.670;6.184;2023-02-13T04:14:24;100852.13;;;6.27;100.00
50123;BME280;36021;48.670;6.184;2023-02-13T04:16:55;100845.41;;;6.23;100.00
50123;BME280;36021;48.670;6.184;2023-02-13T04:19:21;100845.44;;;6.16;100.00
50123;BME280;36021;48.670;6.184;2023-02-13T04:21:48;100851.81;;;6.10;100.00
50123;BME280;36021;48.670;6.184;2023-02-13T04:24:20;100850.97;;;6.10;100.00
50123;BME280;36021;48.670;6.184;2023-02-13T04:26:50;100858.53;;;6.14;100.00
50123;BME280;36021;48.670;6.184;2023-02-13T04:29:16;100851.38;;;6.13;100.00
50123;BME280;36021;48.670;6.184;2023-02-13T04:31:42;100857.28;;;6.10;100.00
50123;BME280;36021;48.670;6.184;2023-02-13T04:34:08;100857.38;;;5.97;100.00
50123;BME280;36021;48.670;6.184;2023-02-13T04:36:34;100857.94;;;6.06;100.00
50123;BME280;36021;48.670;6.184;2023-02-13T04:38:59;100855.59;;;6.09;100.00
50123;BME280;36021;48.670;6.184;2023-02-13T04:41:25;100860.03;;;6.10;100.00
50123;BME280;36021;48.670;6.184;2023-02-13T04:43:50;100850.97;;;6.10;100.00
50123;BME280;36021;48.670;6.184;2023-02-13T04:46:17;100857.25;;;6.17;100.00
50123;BME280;36021;48.670;6.184;2023-02-13T04:48:42;100853.97;;;6.02;100.00
50123;BME280;36021;48.670;6.184;2023-02-13T04:51:08;100847.31;;;5.85;100.00
50123;BME280;36021;48.670;6.184;2023-02-13T04:56:24;100848.78;;;5.87;100.00
50123;BME280;36021;48.670;6.184;2023-02-13T04:58:50;100856.75;;;5.95;100.00
50123;BME280;36021;48.670;6.184;2023-02-13T05:01:15;100852.78;;;5.91;100.00
50123;BME280;36021;48.670;6.184;2023-02-13T05:03:41;100860.84;;;5.66;100.00
50123;BME280;36021;48.670;6.184;2023-02-13T05:06:07;100860.47;;;5.56;100.00
50123;BME280;36021;48.670;6.184;2023-02-13T05:08:32;100863.00;;;5.58;100.00
50123;BME280;36021;48.670;6.184;2023-02-13T05:10:58;100868.25;;;5.66;100.00
50123;BME280;36021;48.670;6.184;2023-02-13T05:13:24;100862.38;;;5.62;100.00
50123;BME280;36021;48.670;6.184;2023-02-13T05:15:49;100861.09;;;5.65;100.00
50123;BME280;36021;48.670;6.184;2023-02-13T05:18:17;100869.97;;;5.54;100.00
50123;BME280;36021;48.670;6.184;2023-02-13T05:20:42;100861.28;;;5.63;100.00
50123;BME280;36021;48.670;6.184;2023-02-13T05:23:13;100868.03;;;5.61;100.00
50123;BME280;36021;48.670;6.184;2023-02-13T05:25:48;100873.28;;;5.69;100.00
50123;BME280;36021;48.670;6.184;2023-02-13T05:28:14;100876.16;;;5.81;100.00
50123;BME280;36021;48.670;6.184;2023-02-13T05:30:58;100871.75;;;5.73;100.00
50123;BME280;36021;48.670;6.184;2023-02-13T05:33:25;100868.41;;;5.71;100.00
50123;BME280;36021;48.670;6.184;2023-02-13T05:35:51;100870.16;;;5.59;100.00
50123;BME280;36021;48.670;6.184;2023-02-13T05:38:16;100869.34;;;5.52;100.00
50123;BME280;36021;48.670;6.184;2023-02-13T05:40:42;100864.31;;;5.49;100.00
50123;BME280;36021;48.670;6.184;2023-02-13T05:43:07;100874.00;;;5.45;100.00
50123;BME280;36021;48.670;6.184;2023-02-13T05:45:33;100879.06;;;5.35;100.00
50123;BME280;36021;48.670;6.184;2023-02-13T05:47:58;100875.28;;;5.42;100.00
50123;BME280;36021;48.670;6.184;2023-02-13T05:50:24;100877.38;;;5.34;100.00
50123;BME280;36021;48.670;6.184;2023-02-13T05:52:49;100881.13;;;5.52;100.00
50123;BME280;36021;48.670;6.184;2023-02-13T05:55:15;100877.78;;;5.44;100.00
50123;BME280;36021;48.670;6.184;2023-02-13T05:57:40;100871.44;;;5.50;100.00
50123;BME280;36021;48.670;6.184;2023-02-13T06:00:06;100878.09;;;5.67;100.00
50123;BME280;36021;48.670;6.184;2023-02-13T06:02:32;100870.94;;;5.72;100.00
50123;BME280;36021;48.670;6.184;2023-02-13T06:04:57;100876.63;;;5.71;100.00
50123;BME280;36021;48.670;6.184;2023-02-13T06:07:23;100871.59;;;5.68;100.00
50123;BME280;36021;48.670;6.184;2023-02-13T06:09:48;100865.88;;;5.69;100.00
50123;BME280;36021;48.670;6.184;2023-02-13T06:12:14;100871.81;;;5.60;100.00
50123;BME280;36021;48.670;6.184;2023-02-13T06:14:40;100869.34;;;5.52;100.00
50123;BME280;36021;48.670;6.184;2023-02-13T06:17:07;100869.84;;;5.36;100.00
50123;BME280;36021;48.670;6.184;2023-02-13T06:19:34;100869.03;;;5.22;100.00
50123;BME280;36021;48.670;6.184;2023-02-13T06:21:59;100877.84;;;5.24;100.00
50123;BME280;36021;48.670;6.184;2023-02-13T06:24:26;100877.25;;;5.15;100.00
50123;BME280;36021;48.670;6.184;2023-02-13T06:26:51;100885.03;;;5.05;100.00
50123;BME280;36021;48.670;6.184;2023-02-13T06:29:17;100886.72;;;5.06;100.00
50123;BME280;36021;48.670;6.184;2023-02-13T06:31:43;100881.47;;;4.98;100.00
50123;BME280;36021;48.670;6.184;2023-02-13T06:34:09;100882.94;;;4.94;100.00
50123;BME280;36021;48.670;6.184;2023-02-13T06:36:34;100880.22;;;4.88;100.00
50123;BME280;36021;48.670;6.184;2023-02-13T06:39:02;100890.09;;;4.95;100.00
50123;BME280;36021;48.670;6.184;2023-02-13T06:41:27;100885.91;;;4.93;100.00
50123;BME280;36021;48.670;6.184;2023-02-13T06:43:53;100891.75;;;5.09;100.00
50123;BME280;36021;48.670;6.184;2023-02-13T06:46:18;100897.69;;;4.93;100.00
50123;BME280;36021;48.670;6.184;2023-02-13T06:48:44;100899.31;;;5.01;100.00
50123;BME280;36021;48.670;6.184;2023-02-13T06:51:09;100899.75;;;4.91;100.00
50123;BME280;36021;48.670;6.184;2023-02-13T06:53:35;100903.16;;;4.80;100.00
50123;BME280;36021;48.670;6.184;2023-02-13T06:56:08;100910.94;;;4.70;100.00
50123;BME280;36021;48.670;6.184;2023-02-13T06:58:33;100911.78;;;4.77;100.00
50123;BME280;36021;48.670;6.184;2023-02-13T07:00:59;100922.03;;;4.75;100.00
50123;BME280;36021;48.670;6.184;2023-02-13T07:03:25;100919.97;;;4.77;100.00
50123;BME280;36021;48.670;6.184;2023-02-13T07:05:50;100924.59;;;4.83;100.00
50123;BME280;36021;48.670;6.184;2023-02-13T07:08:16;100922.47;;;4.92;100.00
50123;BME280;36021;48.670;6.184;2023-02-13T07:10:42;100931.91;;;5.02;100.00
50123;BME280;36021;48.670;6.184;2023-02-13T07:13:08;100930.47;;;4.80;100.00
50123;BME280;36021;48.670;6.184;2023-02-13T07:15:34;100932.53;;;4.78;100.00
50123;BME280;36021;48.670;6.184;2023-02-13T07:18:00;100940.31;;;4.81;100.00
50123;BME280;36021;48.670;6.184;2023-02-13T07:20:26;100939.69;;;4.92;100.00
50123;BME280;36021;48.670;6.184;2023-02-13T07:22:51;100948.13;;;4.97;100.00
50123;BME280;36021;48.670;6.184;2023-02-13T07:25:17;100950.44;;;4.87;100.00
50123;BME280;36021;48.670;6.184;2023-02-13T07:27:43;100947.03;;;4.85;100.00
50123;BME280;36021;48.670;6.184;2023-02-13T07:30:08;100945.56;;;5.02;100.00
50123;BME280;36021;48.670;6.184;2023-02-13T07:32:35;100948.50;;;4.94;100.00
50123;BME280;36021;48.670;6.184;2023-02-13T07:35:00;100960.69;;;5.05;100.00
50123;BME280;36021;48.670;6.184;2023-02-13T07:37:26;100954.81;;;5.01;100.00
50123;BME280;36021;48.670;6.184;2023-02-13T07:39:52;100957.34;;;5.16;100.00
50123;BME280;36021;48.670;6.184;2023-02-13T07:42:18;100953.13;;;5.27;100.00
50123;BME280;36021;48.670;6.184;2023-02-13T07:44:43;100953.50;;;5.37;100.00
50123;BME280;36021;48.670;6.184;2023-02-13T07:47:09;100955.00;;;5.39;100.00
50123;BME280;36021;48.670;6.184;2023-02-13T07:49:34;100957.53;;;5.28;100.00
50123;BME280;36021;48.670;6.184;2023-02-13T07:52:01;100960.25;;;5.28;100.00
50123;BME280;36021;48.670;6.184;2023-02-13T07:54:27;100961.94;;;5.35;100.00
50123;BME280;36021;48.670;6.184;2023-02-13T07:56:52;100949.72;;;5.44;100.00
50123;BME280;36021;48.670;6.184;2023-02-13T07:59:18;100958.97;;;5.30;100.00
50123;BME280;36021;48.670;6.184;2023-02-13T08:01:43;100957.75;;;5.26;100.00
50123;BME280;36021;48.670;6.184;2023-02-13T08:04:08;100953.13;;;5.27;100.00
50123;BME280;36021;48.670;6.184;2023-02-13T08:06:34;100962.34;;;5.39;100.00
50123;BME280;36021;48.670;6.184;2023-02-13T08:09:00;100967.00;;;5.18;100.00
50123;BME280;36021;48.670;6.184;2023-02-13T08:11:44;100962.34;;;5.39;100.00
50123;BME280;36021;48.670;6.184;2023-02-13T08:14:22;100961.50;;;5.38;100.00
50123;BME280;36021;48.670;6.184;2023-02-13T08:16:48;100962.31;;;5.52;100.00
50123;BME280;36021;48.670;6.184;2023-02-13T08:19:15;100956.03;;;5.38;100.00
50123;BME280;36021;48.670;6.184;2023-02-13T08:21:41;100959.16;;;5.48;100.00
50123;BME280;36021;48.670;6.184;2023-02-13T08:24:07;100961.25;;;5.66;100.00
50123;BME280;36021;48.670;6.184;2023-02-13T08:26:33;100966.97;;;5.32;100.00
50123;BME280;36021;48.670;6.184;2023-02-13T08:28:59;100974.59;;;5.03;100.00
50123;BME280;36021;48.670;6.184;2023-02-13T08:31:24;100971.63;;;5.11;100.00
50123;BME280;36021;48.670;6.184;2023-02-13T08:33:51;100969.97;;;5.04;100.00
50123;BME280;36021;48.670;6.184;2023-02-13T08:36:16;100970.38;;;4.94;100.00
50123;BME280;36021;48.670;6.184;2023-02-13T08:38:45;100975.81;;;5.14;100.00
50123;BME280;36021;48.670;6.184;2023-02-13T08:41:10;100962.38;;;5.25;100.00
50123;BME280;36021;48.670;6.184;2023-02-13T08:43:36;100965.28;;;5.37;100.00
50123;BME280;36021;48.670;6.184;2023-02-13T08:46:01;100967.38;;;5.42;100.00
50123;BME280;36021;48.670;6.184;2023-02-13T08:48:27;100965.66;;;5.54;100.00
50123;BME280;36021;48.670;6.184;2023-02-13T08:50:54;100973.66;;;5.62;100.00
50123;BME280;36021;48.670;6.184;2023-02-13T08:53:19;100972.34;;;5.77;100.00
50123;BME280;36021;48.670;6.184;2023-02-13T08:55:52;100970.44;;;5.78;100.00
50123;BME280;36021;48.670;6.184;2023-02-13T08:58:18;100963.97;;;5.66;100.00
50123;BME280;36021;48.670;6.184;2023-02-13T09:00:45;100962.06;;;5.60;100.00
50123;BME280;36021;48.670;6.184;2023-02-13T09:03:11;100961.25;;;5.59;100.00
50123;BME280;36021;48.670;6.184;2023-02-13T09:05:37;100963.56;;;5.56;100.00
50123;BME280;36021;48.670;6.184;2023-02-13T09:08:02;100960.22;;;5.41;100.00
50123;BME280;36021;48.670;6.184;2023-02-13T09:10:28;100962.75;;;5.49;100.00
50123;BME280;36021;48.670;6.184;2023-02-13T09:12:54;100960.66;;;5.38;100.00
50123;BME280;36021;48.670;6.184;2023-02-13T09:15:19;100968.03;;;5.24;100.00
50123;BME280;36021;48.670;6.184;2023-02-13T09:17:45;100964.44;;;5.37;100.00
50123;BME280;36021;48.670;6.184;2023-02-13T09:20:12;100973.31;;;5.12;100.00
50123;BME280;36021;48.670;6.184;2023-02-13T09:22:38;100961.09;;;5.35;100.00
50123;BME280;36021;48.670;6.184;2023-02-13T09:25:05;100967.81;;;5.39;100.00
50123;BME280;36021;48.670;6.184;2023-02-13T09:27:32;100969.72;;;5.32;100.00
50123;BME280;36021;48.670;6.184;2023-02-13T09:30:00;100973.31;;;5.19;100.00
50123;BME280;36021;48.670;6.184;2023-02-13T09:32:26;100978.34;;;5.09;100.00
50123;BME280;36021;48.670;6.184;2023-02-13T09:34:53;100973.50;;;5.17;100.00
50123;BME280;36021;48.670;6.184;2023-02-13T09:37:18;100979.22;;;5.09;100.00
50123;BME280;36021;48.670;6.184;2023-02-13T09:39:44;100979.81;;;5.18;100.00
50123;BME280;36021;48.670;6.184;2023-02-13T09:42:31;100971.44;;;5.06;100.00
50123;BME280;36021;48.670;6.184;2023-02-13T09:44:59;100971.41;;;5.33;100.00
50123;BME280;36021;48.670;6.184;2023-02-13T09:47:30;100964.63;;;5.55;100.00
50123;BME280;36021;48.670;6.184;2023-02-13T09:50:09;100968.59;;;5.65;100.00
50123;BME280;36021;48.670;6.184;2023-02-13T09:52:36;100966.25;;;5.75;100.00
50123;BME280;36021;48.670;6.184;2023-02-13T09:55:12;100962.72;;;5.62;100.00
50123;BME280;36021;48.670;6.184;2023-02-13T09:57:41;100961.84;;;5.68;100.00
50123;BME280;36021;48.670;6.184;2023-02-13T10:00:21;100966.09;;;5.51;100.00
50123;BME280;36021;48.670;6.184;2023-02-13T10:07:54;100964.53;;;5.94;100.00
50123;BME280;36021;48.670;6.184;2023-02-13T10:10:29;100966.78;;;5.27;100.00
50123;BME280;36021;48.670;6.184;2023-02-13T10:13:18;100967.78;;;5.58;100.00
50123;BME280;36021;48.670;6.184;2023-02-13T10:18:15;100975.69;;;5.79;100.00
50123;BME280;36021;48.670;6.184;2023-02-13T10:20:43;100971.91;;;5.87;100.00
50123;BME280;36021;48.670;6.184;2023-02-13T10:23:26;100972.88;;;6.06;100.00
50123;BME280;36021;48.670;6.184;2023-02-13T10:26:26;100972.69;;;6.07;100.00
50123;BME280;36021;48.670;6.184;2023-02-13T10:28:51;100975.59;;;6.12;100.00
50123;BME280;36021;48.670;6.184;2023-02-13T10:31:39;100968.19;;;6.19;100.00
50123;BME280;36021;48.670;6.184;2023-02-13T10:34:10;100969.13;;;6.00;100.00
50123;BME280;36021;48.670;6.184;2023-02-13T10:36:39;100971.75;;;6.20;100.00
50123;BME280;36021;48.670;6.184;2023-02-13T10:41:52;100967.22;;;6.01;100.00
50123;BME280;36021;48.670;6.184;2023-02-13T10:44:30;100970.88;;;5.88;100.00
50123;BME280;36021;48.670;6.184;2023-02-13T10:59:35;100971.28;;;6.29;100.00
50123;BME280;36021;48.670;6.184;2023-02-13T11:04:35;100961.47;;;6.15;100.00
50123;BME280;36021;48.670;6.184;2023-02-13T11:07:02;100962.53;;;6.14;100.00
50123;BME280;36021;48.670;6.184;2023-02-13T11:09:27;100964.00;;;6.17;100.00
50123;BME280;36021;48.670;6.184;2023-02-13T11:12:37;100954.06;;;6.22;100.00
50123;BME280;36021;48.670;6.184;2023-02-13T11:15:00;100962.91;;;6.24;100.00
50123;BME280;36021;48.670;6.184;2023-02-13T11:17:27;100963.06;;;5.85;100.00
50123;BME280;36021;48.670;6.184;2023-02-13T11:19:55;100963.00;;;6.05;100.00
50123;BME280;36021;48.670;6.184;2023-02-13T11:22:31;100964.94;;;5.98;100.00
50123;BME280;36021;48.670;6.184;2023-02-13T11:25:03;100961.81;;;5.81;100.00
50123;BME280;36021;48.670;6.184;2023-02-13T11:27:32;100967.19;;;6.07;100.00
50123;BME280;36021;48.670;6.184;2023-02-13T11:30:01;100966.25;;;6.26;100.00
50123;BME280;36021;48.670;6.184;2023-02-13T11:32:29;100970.00;;;6.32;100.00
50123;BME280;36021;48.670;6.184;2023-02-13T11:34:55;100969.94;;;6.45;100.00
50123;BME280;36021;48.670;6.184;2023-02-13T11:37:30;100969.03;;;6.51;100.00
50123;BME280;36021;48.670;6.184;2023-02-13T11:39:56;100962.44;;;6.65;100.00
50123;BME280;36021;48.670;6.184;2023-02-13T11:45:01;100952.72;;;6.69;100.00
50123;BME280;36021;48.670;6.184;2023-02-13T11:47:38;100947.34;;;6.81;100.00
50123;BME280;36021;48.670;6.184;2023-02-13T11:50:05;100939.41;;;6.73;100.00
50123;BME280;36021;48.670;6.184;2023-02-13T11:52:33;100941.75;;;6.69;100.00
50123;BME280;36021;48.670;6.184;2023-02-13T11:55:03;100940.31;;;6.67;100.00
50123;BME280;36021;48.670;6.184;2023-02-13T11:57:33;100935.63;;;6.74;100.00
50123;BME280;36021;48.670;6.184;2023-02-13T12:00:00;100940.81;;;6.82;100.00
50123;BME280;36021;48.670;6.184;2023-02-13T12:02:27;100934.59;;;6.93;100.00
50123;BME280;36021;48.670;6.184;2023-02-13T12:04:54;100927.56;;;6.79;100.00
50123;BME280;36021;48.670;6.184;2023-02-13T12:07:29;100937.16;;;6.63;100.00
50123;BME280;36021;48.670;6.184;2023-02-13T12:12:31;100934.03;;;6.60;100.00
50123;BME280;36021;48.670;6.184;2023-02-13T12:14:58;100932.09;;;6.67;100.00
50123;BME280;36021;48.670;6.184;2023-02-13T12:17:26;100933.97;;;6.91;100.00
50123;BME280;36021;48.670;6.184;2023-02-13T12:19:55;100921.06;;;6.98;100.00
50123;BME280;36021;48.670;6.184;2023-02-13T12:22:28;100926.19;;;6.88;100.00
50123;BME280;36021;48.670;6.184;2023-02-13T12:27:38;100931.25;;;6.66;100.00
50123;BME280;36021;48.670;6.184;2023-02-13T12:51:23;100917.94;;;6.70;100.00
50123;BME280;36021;48.670;6.184;2023-02-13T13:01:19;100914.75;;;6.73;100.00
50123;BME280;36021;48.670;6.184;2023-02-13T13:06:38;100914.44;;;6.81;100.00
50123;BME280;36021;48.670;6.184;2023-02-13T13:11:38;100908.94;;;6.32;100.00
50123;BME280;36021;48.670;6.184;2023-02-13T13:14:19;100929.13;;;6.37;100.00
50123;BME280;36021;48.670;6.184;2023-02-13T13:19:23;100914.63;;;6.61;100.00
50123;BME280;36021;48.670;6.184;2023-02-13T13:22:04;100908.94;;;6.32;100.00
50123;BME280;36021;48.670;6.184;2023-02-13T13:24:45;100913.41;;;6.57;100.00
50123;BME280;36021;48.670;6.184;2023-02-13T13:27:19;100901.69;;;6.44;100.00
50123;BME280;36021;48.670;6.184;2023-02-13T13:29:56;100910.53;;;6.14;100.00
50123;BME280;36021;48.670;6.184;2023-02-13T13:32:24;100901.50;;;6.39;100.00
50123;BME280;36021;48.670;6.184;2023-02-13T13:34:50;100900.09;;;6.61;100.00
50123;BME280;36021;48.670;6.184;2023-02-13T13:42:16;100886.78;;;6.89;100.00
50123;BME280;36021;48.670;6.184;2023-02-13T13:44:56;100888.47;;;6.90;100.00
50123;BME280;36021;48.670;6.184;2023-02-13T13:49:53;100889.91;;;7.36;100.00
50123;BME280;36021;48.670;6.184;2023-02-13T13:54:48;100881.81;;;7.59;100.00
50123;BME280;36021;48.670;6.184;2023-02-13T13:57:17;100872.91;;;7.45;100.00
50123;BME280;36021;48.670;6.184;2023-02-13T14:04:42;100878.28;;;7.33;100.00
50123;BME280;36021;48.670;6.184;2023-02-13T14:07:24;100882.56;;;7.11;100.00
50123;BME280;36021;48.670;6.184;2023-02-13T14:09:50;100876.53;;;7.03;100.00
50123;BME280;36021;48.670;6.184;2023-02-13T14:14:54;100877.81;;;7.00;100.00
50123;BME280;36021;48.670;6.184;2023-02-13T14:20:15;100868.09;;;7.22;100.00
50123;BME280;36021;48.670;6.184;2023-02-13T14:22:45;100870.09;;;7.52;100.00
50123;BME280;36021;48.670;6.184;2023-02-13T14:25:20;100869.38;;;7.56;100.00
50123;BME280;36021;48.670;6.184;2023-02-13T14:27:54;100871.97;;;7.51;100.00
50123;BME280;36021;48.670;6.184;2023-02-13T14:30:25;100862.91;;;7.69;100.00
50123;BME280;36021;48.670;6.184;2023-02-13T14:32:52;100868.53;;;7.74;100.00
50123;BME280;36021;48.670;6.184;2023-02-13T14:38:22;100855.28;;;8.01;100.00
50123;BME280;36021;48.670;6.184;2023-02-13T14:40:49;100852.94;;;7.86;100.00
50123;BME280;36021;48.670;6.184;2023-02-13T14:46:06;100855.03;;;7.72;100.00
50123;BME280;36021;48.670;6.184;2023-02-13T14:48:34;100851.38;;;7.78;100.00
50123;BME280;36021;48.670;6.184;2023-02-13T14:51:00;100846.53;;;7.62;100.00
50123;BME280;36021;48.670;6.184;2023-02-13T14:53:29;100845.19;;;7.83;100.00
50123;BME280;36021;48.670;6.184;2023-02-13T14:55:56;100843.25;;;7.54;100.00
50123;BME280;36021;48.670;6.184;2023-02-13T14:58:30;100848.09;;;7.70;100.00
50123;BME280;36021;48.670;6.184;2023-02-13T15:03:31;100841.03;;;7.44;100.00
50123;BME280;36021;48.670;6.184;2023-02-13T15:06:02;100847.28;;;7.51;100.00
50123;BME280;36021;48.670;6.184;2023-02-13T15:08:31;100838.97;;;7.58;100.00
50123;BME280;36021;48.670;6.184;2023-02-13T15:10:58;100845.84;;;7.49;100.00
50123;BME280;36021;48.670;6.184;2023-02-13T15:13:31;100850.13;;;7.45;100.00
50123;BME280;36021;48.670;6.184;2023-02-13T15:16:01;100844.56;;;7.51;100.00
50123;BME280;36021;48.670;6.184;2023-02-13T15:18:29;100857.13;;;7.59;100.00
50123;BME280;36021;48.670;6.184;2023-02-13T15:20:56;100842.94;;;7.62;100.00